Time;durP1;ratioP1;P1;durP2;ratioP2;P2;SDS_P1;SDS_P2;PMS_P1;PMS_P2;Temp;Humidity;BMP_temperature;BMP_pressure;BME280_temperature;BME280_humidity;BME280_pressure;Samples;Min_cycle;Max_cycle;Signal;HPM_P1;HPM_P2
2021/04/02 00:01:18;;;;;;;21.90;9.52;;;;;;;;;;5045935;28;20220;-86
2021/04/02 00:03:44;;;;;;;19.35;8.35;;;;;;;;;;5060403;28;20193;-89
2021/04/02 00:06:11;;;;;;;19.83;8.43;;;;;;;;;;5041857;28;20241;-88
2021/04/02 00:08:37;;;;;;;18.63;8.35;;;;;;;;;;5046406;28;20435;-88
2021/04/02 00:11:08;;;;;;;18.58;8.48;;;;;;;;;;5046614;28;20424;-88
2021/04/02 00:13:36;;;;;;;15.80;9.57;;;;;;;;;;5045539;28;20192;-89
2021/04/02 00:16:02;;;;;;;17.00;8.00;;;;;;;;;;5045433;28;20186;-85
2021/04/02 00:18:28;;;;;;;16.50;8.93;;;;;;;;;;5061311;28;20193;-89
2021/04/02 00:20:55;;;;;;;17.23;8.82;;;;;;;;;;5046132;28;20224;-84
2021/04/02 00:23:23;;;;;;;17.33;8.57;;;;;;;;;;5046602;28;20253;-87
2021/04/02 00:25:50;;;;;;;25.30;11.25;;;;;;;;;;5049881;28;20221;-86
2021/04/02 00:28:16;;;;;;;18.50;8.63;;;;;;;;;;5041200;28;20178;-87
2021/04/02 00:30:49;;;;;;;15.90;7.80;;;;;;;;;;5045233;28;20181;-88
2021/04/02 00:33:17;;;;;;;20.10;9.00;;;;;;;;;;5060715;28;20186;-83
2021/04/02 00:35:43;;;;;;;18.55;8.82;;;;;;;;;;5060546;28;20174;-83
2021/04/02 00:38:10;;;;;;;17.50;8.67;;;;;;;;;;5046656;28;20181;-88
2021/04/02 00:40:48;;;;;;;14.85;10.10;;;;;;;;;;5051578;28;20438;-85
2021/04/02 00:43:15;;;;;;;22.27;9.15;;;;;;;;;;5039286;28;20312;-89
2021/04/02 00:45:41;;;;;;;23.98;9.77;;;;;;;;;;5045547;28;20216;-88
2021/04/02 00:48:08;;;;;;;19.10;9.88;;;;;;;;;;5060982;28;20201;-88
2021/04/02 00:50:46;;;;;;;23.58;9.70;;;;;;;;;;5044121;28;20177;-88
2021/04/02 00:53:12;;;;;;;18.50;10.68;;;;;;;;;;5043625;28;20173;-90
2021/04/02 00:55:39;;;;;;;21.85;8.18;;;;;;;;;;5044577;28;20205;-86
2021/04/02 00:58:05;;;;;;;14.32;8.85;;;;;;;;;;5055299;28;20214;-88
2021/04/02 01:00:31;;;;;;;18.23;8.73;;;;;;;;;;5044796;28;20215;-87
2021/04/02 01:02:58;;;;;;;18.83;8.30;;;;;;;;;;5043169;28;20264;-87
2021/04/02 01:05:25;;;;;;;16.05;8.50;;;;;;;;;;5045544;28;20204;-82
2021/04/02 01:07:57;;;;;;;20.02;8.48;;;;;;;;;;5032547;28;20190;-89
2021/04/02 01:10:24;;;;;;;17.92;8.95;;;;;;;;;;5040557;28;20558;-84
2021/04/02 01:12:54;;;;;;;19.52;8.30;;;;;;;;;;5059480;28;20194;-86
2021/04/02 01:15:22;;;;;;;11.68;7.72;;;;;;;;;;5040494;28;20225;-87
2021/04/02 01:17:50;;;;;;;22.73;8.85;;;;;;;;;;5043643;28;20296;-89
2021/04/02 01:20:17;;;;;;;14.05;8.40;;;;;;;;;;5045784;28;20173;-85
2021/04/02 01:22:44;;;;;;;21.23;8.68;;;;;;;;;;5048766;28;20190;-86
2021/04/02 01:25:19;;;;;;;17.95;8.50;;;;;;;;;;5039841;28;20194;-89
2021/04/02 01:28:04;;;;;;;15.98;8.82;;;;;;;;;;5059540;28;20189;-87
2021/04/02 01:30:30;;;;;;;13.88;8.25;;;;;;;;;;5040358;28;20209;-88
2021/04/02 01:32:59;;;;;;;17.65;7.70;;;;;;;;;;5044597;28;20265;-87
2021/04/02 01:35:25;;;;;;;16.30;8.52;;;;;;;;;;5056354;28;20181;-89
2021/04/02 01:37:53;;;;;;;17.57;8.27;;;;;;;;;;5060263;28;20201;-86
2021/04/02 01:40:20;;;;;;;15.75;8.25;;;;;;;;;;5043671;28;20443;-85
2021/04/02 01:42:47;;;;;;;14.02;8.45;;;;;;;;;;5044064;28;20236;-87
2021/04/02 01:45:14;;;;;;;14.43;7.53;;;;;;;;;;5043854;28;20229;-84
2021/04/02 01:47:41;;;;;;;17.02;8.77;;;;;;;;;;5059996;28;20204;-85
2021/04/02 01:50:08;;;;;;;19.13;8.95;;;;;;;;;;5054895;28;20201;-80
2021/04/02 01:52:34;;;;;;;14.18;6.93;;;;;;;;;;5041309;28;20206;-82
2021/04/02 01:55:00;;;;;;;20.23;7.63;;;;;;;;;;5042926;28;20181;-83
2021/04/02 01:57:27;;;;;;;14.98;7.95;;;;;;;;;;5058918;28;20193;-83
2021/04/02 01:59:54;;;;;;;17.27;10.07;;;;;;;;;;5043105;28;20197;-80
2021/04/02 02:02:21;;;;;;;14.18;6.28;;;;;;;;;;5043540;28;20177;-87
2021/04/02 02:04:47;;;;;;;21.23;7.70;;;;;;;;;;5043297;28;20243;-83
2021/04/02 02:07:14;;;;;;;12.50;7.78;;;;;;;;;;5043665;28;20351;-85
2021/04/02 02:09:44;;;;;;;14.40;8.88;;;;;;;;;;5058777;28;20451;-86
2021/04/02 02:12:11;;;;;;;11.23;7.55;;;;;;;;;;5039490;28;20182;-84
2021/04/02 02:14:39;;;;;;;17.00;8.43;;;;;;;;;;5043664;28;20387;-84
2021/04/02 02:17:08;;;;;;;14.40;7.65;;;;;;;;;;5046027;28;20181;-86
2021/04/02 02:19:36;;;;;;;18.77;8.38;;;;;;;;;;5041054;28;20185;-86
2021/04/02 02:22:03;;;;;;;18.75;7.15;;;;;;;;;;5043386;28;20186;-87
2021/04/02 02:24:29;;;;;;;17.23;9.73;;;;;;;;;;5057717;28;20190;-83
2021/04/02 02:26:56;;;;;;;18.27;8.25;;;;;;;;;;5046683;28;20221;-86
2021/04/02 02:29:22;;;;;;;21.50;8.55;;;;;;;;;;5048399;28;20174;-82
2021/04/02 02:31:48;;;;;;;17.05;8.35;;;;;;;;;;5052043;28;20233;-85
2021/04/02 02:34:14;;;;;;;14.90;7.40;;;;;;;;;;5041920;28;20192;-84
2021/04/02 02:36:40;;;;;;;20.02;8.40;;;;;;;;;;5047419;28;20240;-83
2021/04/02 02:39:11;;;;;;;17.85;7.78;;;;;;;;;;5047313;28;20269;-85
2021/04/02 02:41:37;;;;;;;14.15;7.68;;;;;;;;;;5045948;28;20272;-85
2021/04/02 02:44:03;;;;;;;17.60;8.80;;;;;;;;;;5049397;28;20718;-82
2021/04/02 02:46:30;;;;;;;14.57;8.02;;;;;;;;;;5044169;28;20213;-85
2021/04/02 02:49:10;;;;;;;15.35;7.53;;;;;;;;;;5058693;28;20663;-85
2021/04/02 02:51:37;;;;;;;15.00;8.43;;;;;;;;;;5036544;28;20192;-85
2021/04/02 02:54:05;;;;;;;27.48;10.57;;;;;;;;;;5062949;28;20182;-85
2021/04/02 02:56:33;;;;;;;17.08;8.60;;;;;;;;;;5045784;28;20186;-85
2021/04/02 02:59:01;;;;;;;14.02;8.27;;;;;;;;;;5046423;28;20174;-85
2021/04/02 03:01:28;;;;;;;24.10;9.05;;;;;;;;;;5037933;28;20550;-88
2021/04/02 03:03:55;;;;;;;17.70;7.68;;;;;;;;;;5042890;28;20186;-86
2021/04/02 03:06:23;;;;;;;15.07;7.72;;;;;;;;;;5061497;28;20259;-86
2021/04/02 03:08:50;;;;;;;16.95;8.35;;;;;;;;;;5046616;28;20191;-85
2021/04/02 03:11:17;;;;;;;18.00;8.60;;;;;;;;;;5048489;28;20170;-85
2021/04/02 03:13:45;;;;;;;18.77;8.32;;;;;;;;;;5042547;28;20639;-86
2021/04/02 03:16:11;;;;;;;16.23;8.20;;;;;;;;;;5055460;28;20186;-83
2021/04/02 03:18:38;;;;;;;17.67;8.05;;;;;;;;;;5036609;28;20223;-86
2021/04/02 03:21:08;;;;;;;17.05;8.45;;;;;;;;;;5061940;28;20695;-84
2021/04/02 03:23:35;;;;;;;18.83;9.07;;;;;;;;;;5043976;28;20236;-84
2021/04/02 03:26:02;;;;;;;15.27;7.32;;;;;;;;;;5047144;28;20264;-84
2021/04/02 03:28:28;;;;;;;16.77;8.85;;;;;;;;;;5042324;28;20277;-86
2021/04/02 03:30:55;;;;;;;20.70;9.10;;;;;;;;;;5046235;28;20275;-87
2021/04/02 03:33:26;;;;;;;17.08;9.80;;;;;;;;;;5046412;28;20217;-85
2021/04/02 03:35:54;;;;;;;16.65;9.68;;;;;;;;;;5045181;28;20215;-86
2021/04/02 03:38:22;;;;;;;21.70;8.57;;;;;;;;;;5047543;28;20188;-90
2021/04/02 03:40:49;;;;;;;15.07;7.38;;;;;;;;;;5046676;28;20217;-87
2021/04/02 03:43:16;;;;;;;13.00;7.95;;;;;;;;;;5046001;28;20502;-87
2021/04/02 03:45:42;;;;;;;16.98;9.55;;;;;;;;;;5045612;28;20209;-87
2021/04/02 03:48:10;;;;;;;14.45;9.05;;;;;;;;;;5046415;28;20182;-87
2021/04/02 03:50:40;;;;;;;13.90;8.38;;;;;;;;;;5046503;28;20193;-86
2021/04/02 03:53:08;;;;;;;11.82;7.45;;;;;;;;;;5043736;28;20174;-87
2021/04/02 03:55:36;;;;;;;20.25;8.57;;;;;;;;;;5041767;28;20216;-91
2021/04/02 03:58:02;;;;;;;13.98;8.70;;;;;;;;;;5056907;28;20174;-87
2021/04/02 04:00:34;;;;;;;20.00;8.80;;;;;;;;;;5045805;28;20189;-85
2021/04/02 04:03:01;;;;;;;18.15;8.75;;;;;;;;;;5046033;28;24043;-86
2021/04/02 04:05:29;;;;;;;18.48;8.45;;;;;;;;;;5046244;28;20201;-86
2021/04/02 04:07:55;;;;;;;18.75;8.57;;;;;;;;;;5045018;28;20170;-87
2021/04/02 04:10:21;;;;;;;14.57;8.30;;;;;;;;;;5045700;28;20186;-84
2021/04/02 04:12:49;;;;;;;21.10;9.95;;;;;;;;;;5046152;28;20782;-87
2021/04/02 04:15:16;;;;;;;21.35;9.80;;;;;;;;;;5045659;28;20639;-87
2021/04/02 04:17:43;;;;;;;15.10;7.90;;;;;;;;;;5045780;28;20177;-87
2021/04/02 04:20:13;;;;;;;13.10;8.35;;;;;;;;;;5046450;28;20227;-88
2021/04/02 04:22:42;;;;;;;12.40;8.52;;;;;;;;;;5051129;28;20253;-87
2021/04/02 04:25:09;;;;;;;14.60;8.45;;;;;;;;;;5041265;28;20274;-89
2021/04/02 04:27:36;;;;;;;15.05;8.50;;;;;;;;;;5060902;28;20213;-85
2021/04/02 04:30:02;;;;;;;16.08;8.57;;;;;;;;;;5045483;28;20594;-88
2021/04/02 04:32:29;;;;;;;13.52;8.57;;;;;;;;;;5046106;28;20174;-87
2021/04/02 04:34:56;;;;;;;20.17;10.27;;;;;;;;;;5044044;28;20178;-87
2021/04/02 04:37:23;;;;;;;16.42;9.00;;;;;;;;;;5045556;28;20209;-87
2021/04/02 04:39:49;;;;;;;20.58;9.38;;;;;;;;;;5060883;28;20220;-85
2021/04/02 04:42:16;;;;;;;19.00;9.57;;;;;;;;;;5045361;28;20189;-85
2021/04/02 04:44:43;;;;;;;20.45;9.23;;;;;;;;;;5045441;28;20225;-85
2021/04/02 04:47:09;;;;;;;18.15;8.32;;;;;;;;;;5045656;28;20205;-89
2021/04/02 04:49:35;;;;;;;22.67;8.85;;;;;;;;;;5050493;28;20213;-88
2021/04/02 04:52:02;;;;;;;13.82;8.82;;;;;;;;;;5038145;28;20178;-88
2021/04/02 04:54:29;;;;;;;19.10;10.32;;;;;;;;;;5060991;28;20189;-87
2021/04/02 04:56:57;;;;;;;16.40;9.23;;;;;;;;;;5044291;28;20193;-87
2021/04/02 04:59:23;;;;;;;14.73;9.07;;;;;;;;;;5041554;28;20182;-90
2021/04/02 05:01:51;;;;;;;18.35;9.90;;;;;;;;;;5043926;28;20186;-89
2021/04/02 05:04:17;;;;;;;15.52;8.68;;;;;;;;;;5057789;28;20257;-88
2021/04/02 05:06:45;;;;;;;18.23;9.30;;;;;;;;;;5040203;28;20212;-88
2021/04/02 05:09:11;;;;;;;19.80;10.05;;;;;;;;;;5044866;28;20181;-87
2021/04/02 05:11:38;;;;;;;18.05;9.57;;;;;;;;;;5043837;28;20174;-87
2021/04/02 05:14:05;;;;;;;17.88;10.05;;;;;;;;;;5053527;28;20200;-87
2021/04/02 05:16:32;;;;;;;18.92;8.88;;;;;;;;;;5040162;28;20196;-88
2021/04/02 05:18:59;;;;;;;23.73;10.07;;;;;;;;;;5059710;28;20197;-85
2021/04/02 05:21:25;;;;;;;19.05;9.45;;;;;;;;;;5043247;28;20186;-84
2021/04/02 05:23:52;;;;;;;19.92;9.55;;;;;;;;;;5059761;28;20177;-88
2021/04/02 05:26:18;;;;;;;21.58;12.18;;;;;;;;;;5044669;28;20201;-87
2021/04/02 05:28:44;;;;;;;18.95;10.90;;;;;;;;;;5032400;28;20286;-86
2021/04/02 05:31:10;;;;;;;15.73;10.85;;;;;;;;;;5040069;28;20174;-85
2021/04/02 05:33:36;;;;;;;17.40;10.10;;;;;;;;;;5042726;28;20185;-86
2021/04/02 05:36:03;;;;;;;18.07;10.97;;;;;;;;;;5044124;28;20190;-85
2021/04/02 05:38:29;;;;;;;19.45;10.35;;;;;;;;;;5043439;28;20431;-85
2021/04/02 05:40:55;;;;;;;24.63;11.57;;;;;;;;;;5044601;28;20197;-86
2021/04/02 05:43:27;;;;;;;21.48;11.00;;;;;;;;;;5042705;28;20549;-87
2021/04/02 05:45:53;;;;;;;26.88;12.98;;;;;;;;;;5043376;28;20224;-85
2021/04/02 05:48:20;;;;;;;20.85;12.15;;;;;;;;;;5042695;28;20186;-86
2021/04/02 05:50:46;;;;;;;18.83;11.02;;;;;;;;;;5044197;28;20200;-85
2021/04/02 05:53:13;;;;;;;21.58;13.38;;;;;;;;;;5045246;28;20174;-88
2021/04/02 05:55:40;;;;;;;20.73;11.45;;;;;;;;;;5043987;28;20197;-85
2021/04/02 05:58:07;;;;;;;18.30;12.23;;;;;;;;;;5043390;28;20188;-85
2021/04/02 06:00:33;;;;;;;18.23;11.18;;;;;;;;;;5042695;28;20189;-86
2021/04/02 06:02:59;;;;;;;19.63;12.70;;;;;;;;;;5043724;28;20675;-84
2021/04/02 06:05:26;;;;;;;20.25;12.30;;;;;;;;;;5043692;28;20224;-85
2021/04/02 06:07:53;;;;;;;18.70;12.52;;;;;;;;;;5043573;28;20697;-84
2021/04/02 06:10:20;;;;;;;19.48;13.00;;;;;;;;;;5042552;28;20181;-87
2021/04/02 06:12:46;;;;;;;20.35;14.07;;;;;;;;;;5044180;28;20192;-87
2021/04/02 06:15:12;;;;;;;19.42;12.75;;;;;;;;;;5044929;28;20289;-87
2021/04/02 06:18:01;;;;;;;19.10;13.20;;;;;;;;;;5042062;28;20765;-89
2021/04/02 06:20:28;;;;;;;16.15;12.50;;;;;;;;;;5040876;28;20165;-87
2021/04/02 06:23:06;;;;;;;21.25;13.05;;;;;;;;;;5047586;28;20201;-87
2021/04/02 06:25:32;;;;;;;26.55;14.13;;;;;;;;;;5041394;28;20197;-89
2021/04/02 06:27:58;;;;;;;20.70;13.75;;;;;;;;;;5042220;28;20545;-87
2021/04/02 06:30:27;;;;;;;19.88;13.75;;;;;;;;;;5043266;28;20674;-87
2021/04/02 06:32:53;;;;;;;20.90;13.20;;;;;;;;;;5043397;28;20285;-87
2021/04/02 06:35:22;;;;;;;20.38;13.70;;;;;;;;;;5033082;28;20196;-84
2021/04/02 06:37:50;;;;;;;23.60;13.85;;;;;;;;;;5038110;28;20276;-84
2021/04/02 06:40:17;;;;;;;24.33;14.38;;;;;;;;;;5042669;28;20201;-85
2021/04/02 06:42:44;;;;;;;19.08;12.15;;;;;;;;;;5042856;28;20190;-86
2021/04/02 06:45:10;;;;;;;19.92;14.60;;;;;;;;;;5041499;28;20182;-85
2021/04/02 06:47:46;;;;;;;23.05;14.30;;;;;;;;;;5039943;28;20255;-83
2021/04/02 06:50:15;;;;;;;22.42;14.40;;;;;;;;;;5042849;28;20178;-86
2021/04/02 06:52:41;;;;;;;25.25;14.13;;;;;;;;;;5039153;28;20249;-84
2021/04/02 06:55:08;;;;;;;21.88;15.18;;;;;;;;;;5036946;28;20182;-86
2021/04/02 06:57:34;;;;;;;22.15;12.98;;;;;;;;;;5033060;28;20190;-83
2021/04/02 07:00:00;;;;;;;18.80;14.35;;;;;;;;;;5041214;28;20190;-82
2021/04/02 07:02:28;;;;;;;21.27;14.25;;;;;;;;;;5041687;28;20178;-82
2021/04/02 07:04:54;;;;;;;21.88;15.15;;;;;;;;;;5041969;28;20177;-81
2021/04/02 07:07:20;;;;;;;23.50;13.98;;;;;;;;;;5040306;28;20733;-83
2021/04/02 07:09:46;;;;;;;19.20;14.00;;;;;;;;;;5037703;28;20182;-83
2021/04/02 07:12:22;;;;;;;21.52;15.90;;;;;;;;;;5059324;28;20185;-84
2021/04/02 07:14:48;;;;;;;16.75;14.55;;;;;;;;;;5043556;28;20178;-83
2021/04/02 07:17:14;;;;;;;18.00;14.25;;;;;;;;;;5046799;28;20448;-85
2021/04/02 07:19:42;;;;;;;18.25;13.15;;;;;;;;;;5045928;28;20185;-81
2021/04/02 07:22:09;;;;;;;21.50;14.38;;;;;;;;;;5046007;28;20213;-84
2021/04/02 07:24:35;;;;;;;15.35;13.23;;;;;;;;;;5046108;28;20185;-83
2021/04/02 07:27:01;;;;;;;20.17;13.50;;;;;;;;;;5043884;28;20236;-81
2021/04/02 07:29:28;;;;;;;24.50;13.90;;;;;;;;;;5061336;28;20181;-82
2021/04/02 07:31:55;;;;;;;17.67;13.48;;;;;;;;;;5045554;28;20420;-86
2021/04/02 07:34:22;;;;;;;21.25;13.00;;;;;;;;;;5042149;28;20190;-86
2021/04/02 07:36:48;;;;;;;17.20;12.57;;;;;;;;;;5045789;28;20185;-86
2021/04/02 07:39:17;;;;;;;21.45;13.48;;;;;;;;;;5042998;28;20721;-83
2021/04/02 07:41:52;;;;;;;13.38;11.82;;;;;;;;;;5042892;28;20241;-82
2021/04/02 07:44:19;;;;;;;17.52;13.15;;;;;;;;;;5050018;28;20633;-81
2021/04/02 07:47:07;;;;;;;16.30;12.10;;;;;;;;;;5058399;28;20210;-85
2021/04/02 07:49:33;;;;;;;12.35;10.00;;;;;;;;;;5060983;28;20177;-83
2021/04/02 07:51:59;;;;;;;14.95;10.63;;;;;;;;;;5060885;28;20233;-85
2021/04/02 07:54:35;;;;;;;19.80;13.35;;;;;;;;;;5059442;28;20192;-84
2021/04/02 07:57:19;;;;;;;13.25;11.40;;;;;;;;;;5028802;28;20256;-82
2021/04/02 07:59:46;;;;;;;15.27;11.70;;;;;;;;;;5055183;28;20181;-85
2021/04/02 08:02:28;;;;;;;14.75;11.55;;;;;;;;;;5042318;28;20182;-81
2021/04/02 08:04:56;;;;;;;15.32;11.60;;;;;;;;;;5061178;28;20513;-83
2021/04/02 08:07:33;;;;;;;13.82;11.77;;;;;;;;;;5039940;28;20288;-83
2021/04/02 08:10:00;;;;;;;15.80;10.98;;;;;;;;;;5045476;28;20173;-84
2021/04/02 08:12:29;;;;;;;16.55;12.45;;;;;;;;;;5058561;28;20185;-85
2021/04/02 08:14:57;;;;;;;13.70;10.73;;;;;;;;;;5055156;28;20186;-83
2021/04/02 08:17:28;;;;;;;16.25;11.00;;;;;;;;;;5045433;28;20169;-85
2021/04/02 08:20:03;;;;;;;15.82;11.00;;;;;;;;;;5049587;28;20178;-88
2021/04/02 08:22:29;;;;;;;12.85;11.00;;;;;;;;;;5042238;28;20189;-89
2021/04/02 08:24:56;;;;;;;14.90;10.25;;;;;;;;;;5060134;28;20188;-81
2021/04/02 08:27:22;;;;;;;13.73;10.77;;;;;;;;;;5059908;28;20206;-87
2021/04/02 08:30:02;;;;;;;13.45;10.70;;;;;;;;;;5043639;28;20194;-87
2021/04/02 08:32:28;;;;;;;13.20;10.45;;;;;;;;;;5042228;28;20220;-86
2021/04/02 08:34:54;;;;;;;15.68;9.65;;;;;;;;;;5049275;28;20167;-84
2021/04/02 08:37:20;;;;;;;15.50;10.57;;;;;;;;;;5040439;28;20224;-84
2021/04/02 08:39:46;;;;;;;15.10;10.77;;;;;;;;;;5060397;28;20185;-87
2021/04/02 08:42:13;;;;;;;14.35;11.02;;;;;;;;;;5043741;28;20191;-85
2021/04/02 08:44:40;;;;;;;19.77;9.95;;;;;;;;;;5043648;28;20221;-85
2021/04/02 08:47:10;;;;;;;12.23;10.15;;;;;;;;;;5055344;28;20221;-83
2021/04/02 08:49:36;;;;;;;14.27;10.38;;;;;;;;;;5057987;28;20208;-84
2021/04/02 08:52:05;;;;;;;11.10;8.52;;;;;;;;;;5039101;28;20186;-88
2021/04/02 08:54:31;;;;;;;14.02;9.85;;;;;;;;;;5033637;28;20182;-84
2021/04/02 08:56:57;;;;;;;15.60;10.27;;;;;;;;;;5060407;28;20184;-81
2021/04/02 08:59:23;;;;;;;11.68;9.80;;;;;;;;;;5040947;28;20435;-83
2021/04/02 09:01:51;;;;;;;15.35;9.85;;;;;;;;;;5040695;28;20781;-85
2021/04/02 09:04:18;;;;;;;11.10;9.00;;;;;;;;;;5053410;28;20178;-84
2021/04/02 09:06:45;;;;;;;11.50;9.35;;;;;;;;;;5040331;28;20206;-83
2021/04/02 09:09:21;;;;;;;12.90;9.40;;;;;;;;;;5059471;28;20185;-84
2021/04/02 09:11:55;;;;;;;11.88;9.63;;;;;;;;;;5043014;28;20256;-85
2021/04/02 09:14:21;;;;;;;11.57;9.07;;;;;;;;;;5044993;28;20201;-85
2021/04/02 09:16:48;;;;;;;12.25;9.05;;;;;;;;;;5043717;28;20185;-84
2021/04/02 09:19:15;;;;;;;10.00;8.82;;;;;;;;;;5044237;28;20178;-86
2021/04/02 09:21:41;;;;;;;8.02;7.20;;;;;;;;;;5059767;28;20189;-83
2021/04/02 09:24:08;;;;;;;9.15;8.20;;;;;;;;;;5039969;28;20206;-84
2021/04/02 09:26:44;;;;;;;14.73;8.77;;;;;;;;;;5042561;28;20198;-87
2021/04/02 09:29:11;;;;;;;7.90;7.00;;;;;;;;;;5043167;28;20183;-87
2021/04/02 09:31:38;;;;;;;7.18;6.47;;;;;;;;;;5049925;28;20194;-81
2021/04/02 09:34:06;;;;;;;15.05;7.13;;;;;;;;;;5039780;28;20236;-86
2021/04/02 09:36:47;;;;;;;10.88;7.90;;;;;;;;;;5043915;28;20186;-87
2021/04/02 09:39:18;;;;;;;8.85;7.45;;;;;;;;;;5042674;28;20658;-83
2021/04/02 09:41:58;;;;;;;8.30;7.50;;;;;;;;;;5059300;28;20448;-84
2021/04/02 09:44:26;;;;;;;6.25;5.65;;;;;;;;;;5040180;28;20303;-82
2021/04/02 09:46:52;;;;;;;8.02;7.00;;;;;;;;;;5048243;28;20574;-86
2021/04/02 09:49:23;;;;;;;9.13;8.13;;;;;;;;;;5038538;28;20272;-85
2021/04/02 09:51:50;;;;;;;10.32;7.57;;;;;;;;;;5058979;28;20284;-85
2021/04/02 09:54:17;;;;;;;9.00;6.90;;;;;;;;;;5043359;28;20205;-85
2021/04/02 09:56:47;;;;;;;8.30;7.55;;;;;;;;;;5042758;28;20174;-84
2021/04/02 10:02:03;;;;;;;8.15;6.82;;;;;;;;;;5043670;28;20584;-85
2021/04/02 10:04:35;;;;;;;10.57;7.75;;;;;;;;;;5043573;28;20192;-88
2021/04/02 10:07:04;;;;;;;6.85;6.22;;;;;;;;;;5058687;28;20292;-87
2021/04/02 10:09:30;;;;;;;9.45;6.10;;;;;;;;;;5057785;28;20186;-90
2021/04/02 10:11:56;;;;;;;10.10;6.60;;;;;;;;;;5044038;28;20212;-86
2021/04/02 10:14:25;;;;;;;11.07;7.47;;;;;;;;;;5044609;28;20174;-89
2021/04/02 10:16:51;;;;;;;10.45;7.95;;;;;;;;;;5038999;28;20185;-86
2021/04/02 10:19:19;;;;;;;8.10;7.32;;;;;;;;;;5052067;28;20189;-83
2021/04/02 10:21:46;;;;;;;9.70;8.38;;;;;;;;;;5038890;28;20185;-87
2021/04/02 10:24:12;;;;;;;10.77;7.95;;;;;;;;;;5043384;28;20178;-85
2021/04/02 10:26:38;;;;;;;9.18;7.28;;;;;;;;;;5042134;28;20216;-85
2021/04/02 10:29:04;;;;;;;7.18;6.47;;;;;;;;;;5046679;28;20206;-91
2021/04/02 10:31:30;;;;;;;8.43;7.10;;;;;;;;;;5039104;28;20185;-87
2021/04/02 10:33:56;;;;;;;7.28;6.57;;;;;;;;;;5058766;28;20208;-90
2021/04/02 10:36:22;;;;;;;6.93;6.22;;;;;;;;;;5043116;28;20189;-87
2021/04/02 10:38:49;;;;;;;9.77;7.38;;;;;;;;;;5043450;28;20265;-90
2021/04/02 10:41:17;;;;;;;7.43;6.43;;;;;;;;;;5044274;28;20177;-85
2021/04/02 10:43:43;;;;;;;9.65;6.57;;;;;;;;;;5048041;28;20230;-85
2021/04/02 10:46:11;;;;;;;8.88;6.95;;;;;;;;;;5041354;28;20197;-86
2021/04/02 10:48:48;;;;;;;7.85;6.47;;;;;;;;;;5046977;28;20193;-87
2021/04/02 10:51:17;;;;;;;8.03;7.17;;;;;;;;;;5062526;28;20184;-86
2021/04/02 10:53:43;;;;;;;7.35;6.40;;;;;;;;;;5062385;28;20420;-81
2021/04/02 10:56:10;;;;;;;7.00;5.78;;;;;;;;;;5046496;28;20582;-86
2021/04/02 10:58:36;;;;;;;10.05;6.60;;;;;;;;;;5047000;28;20225;-88
2021/04/02 11:01:03;;;;;;;6.50;5.90;;;;;;;;;;5057786;28;20225;-85
2021/04/02 11:03:31;;;;;;;8.10;6.68;;;;;;;;;;5042756;28;20292;-89
2021/04/02 11:05:57;;;;;;;8.55;7.68;;;;;;;;;;5046169;28;20205;-88
2021/04/02 11:08:23;;;;;;;12.30;8.40;;;;;;;;;;5043585;28;20169;-90
2021/04/02 11:10:49;;;;;;;8.68;7.78;;;;;;;;;;5046288;28;20269;-92
2021/04/02 11:13:15;;;;;;;10.30;7.20;;;;;;;;;;5040005;28;20189;-91
2021/04/02 11:15:44;;;;;;;9.95;7.05;;;;;;;;;;5060701;28;20383;-86
2021/04/02 11:18:10;;;;;;;7.35;6.38;;;;;;;;;;5044234;28;20189;-87
2021/04/02 11:20:36;;;;;;;6.55;5.95;;;;;;;;;;5046689;28;20174;-87
2021/04/02 11:23:02;;;;;;;6.90;6.20;;;;;;;;;;5049018;28;20281;-87
2021/04/02 11:25:31;;;;;;;7.25;6.20;;;;;;;;;;5060563;28;20204;-86
2021/04/02 11:27:57;;;;;;;8.57;6.80;;;;;;;;;;5046133;28;20185;-88
2021/04/02 11:30:23;;;;;;;10.80;7.47;;;;;;;;;;5062066;28;20578;-87
2021/04/02 11:32:49;;;;;;;8.65;6.35;;;;;;;;;;5061622;28;20180;-85
2021/04/02 11:35:16;;;;;;;9.50;7.82;;;;;;;;;;5058087;28;20543;-87
2021/04/02 11:37:43;;;;;;;8.40;7.60;;;;;;;;;;5051814;28;20190;-87
2021/04/02 11:40:11;;;;;;;10.38;9.35;;;;;;;;;;5042263;28;20182;-85
2021/04/02 11:42:37;;;;;;;8.88;6.90;;;;;;;;;;5061641;28;20190;-87
2021/04/02 11:45:04;;;;;;;9.48;8.02;;;;;;;;;;5044597;28;20194;-88
2021/04/02 11:47:30;;;;;;;10.05;6.60;;;;;;;;;;5047183;28;20202;-90
2021/04/02 11:49:56;;;;;;;7.85;7.05;;;;;;;;;;5058310;28;20208;-86
2021/04/02 11:52:22;;;;;;;21.40;9.20;;;;;;;;;;5045429;28;20212;-87
2021/04/02 11:54:48;;;;;;;8.80;7.13;;;;;;;;;;5045649;28;20531;-87
2021/04/02 11:57:16;;;;;;;10.57;8.70;;;;;;;;;;5043133;28;20221;-90
2021/04/02 11:59:42;;;;;;;12.30;8.35;;;;;;;;;;5043525;28;20436;-87
2021/04/02 12:02:08;;;;;;;9.07;8.17;;;;;;;;;;5040733;28;20189;-85
2021/04/02 12:04:34;;;;;;;12.65;8.43;;;;;;;;;;5051181;28;21001;-87
2021/04/02 12:07:00;;;;;;;9.52;7.90;;;;;;;;;;5041148;28;20202;-87
2021/04/02 12:09:26;;;;;;;11.77;7.73;;;;;;;;;;5061079;28;20727;-92
2021/04/02 12:11:52;;;;;;;8.80;7.87;;;;;;;;;;5044214;28;20444;-84
2021/04/02 12:14:18;;;;;;;8.10;7.30;;;;;;;;;;5060730;28;20432;-89
2021/04/02 12:16:44;;;;;;;8.20;7.43;;;;;;;;;;5060756;28;20496;-86
2021/04/02 12:19:10;;;;;;;10.07;8.47;;;;;;;;;;5044889;28;20457;-85
2021/04/02 12:21:36;;;;;;;9.73;8.87;;;;;;;;;;5060470;28;20428;-84
2021/04/02 12:24:03;;;;;;;11.13;8.17;;;;;;;;;;5043632;28;20472;-84
2021/04/02 12:26:29;;;;;;;8.20;7.50;;;;;;;;;;5045429;28;20577;-86
2021/04/02 12:28:55;;;;;;;19.33;9.10;;;;;;;;;;5049667;28;20852;-85
2021/04/02 12:31:21;;;;;;;11.20;9.80;;;;;;;;;;5041046;28;20435;-84
2021/04/02 12:33:47;;;;;;;10.33;9.10;;;;;;;;;;5040570;28;20522;-87
2021/04/02 12:36:13;;;;;;;10.27;9.20;;;;;;;;;;5045178;28;20481;-85
2021/04/02 12:38:39;;;;;;;10.50;8.00;;;;;;;;;;5044189;28;20417;-87
2021/04/02 12:41:06;;;;;;;7.73;6.93;;;;;;;;;;5047994;28;20496;-81
2021/04/02 12:43:32;;;;;;;9.83;6.60;;;;;;;;;;5040786;28;20476;-81
2021/04/02 12:45:59;;;;;;;7.43;6.80;;;;;;;;;;5044471;28;20507;-82
2021/04/02 12:48:26;;;;;;;7.70;7.00;;;;;;;;;;5060001;28;20936;-82
2021/04/02 12:50:53;;;;;;;8.60;6.60;;;;;;;;;;5060250;28;20428;-84
2021/04/02 12:53:19;;;;;;;6.67;6.17;;;;;;;;;;5046099;28;20455;-84
2021/04/02 12:55:45;;;;;;;8.73;6.40;;;;;;;;;;5049868;28;20443;-81
2021/04/02 12:58:13;;;;;;;8.10;6.67;;;;;;;;;;5040889;28;20436;-85
2021/04/02 13:00:48;;;;;;;13.00;6.70;;;;;;;;;;5041733;28;20452;-85
2021/04/02 13:03:14;;;;;;;6.00;5.50;;;;;;;;;;5060342;28;20461;-85
2021/04/02 13:05:43;;;;;;;6.27;5.80;;;;;;;;;;5044784;28;20448;-88
2021/04/02 13:08:12;;;;;;;6.80;6.23;;;;;;;;;;5041592;28;20908;-87
2021/04/02 13:10:38;;;;;;;7.63;5.43;;;;;;;;;;5044232;28;20490;-83
2021/04/02 13:13:04;;;;;;;5.47;5.00;;;;;;;;;;5039140;28;20448;-83
2021/04/02 13:15:30;;;;;;;6.20;5.50;;;;;;;;;;5039469;28;20475;-83
2021/04/02 13:17:56;;;;;;;5.93;5.33;;;;;;;;;;5028476;28;20428;-87
2021/04/02 13:20:24;;;;;;;5.30;4.80;;;;;;;;;;5060862;28;20431;-82
2021/04/02 13:22:50;;;;;;;5.90;4.60;;;;;;;;;;5048582;28;20488;-85
2021/04/02 13:25:19;;;;;;;5.20;4.70;;;;;;;;;;5039434;28;20865;-83
2021/04/02 13:27:45;;;;;;;5.07;4.67;;;;;;;;;;5059057;28;20436;-81
2021/04/02 13:30:13;;;;;;;5.03;4.63;;;;;;;;;;5040104;28;20441;-81
2021/04/02 13:32:39;;;;;;;9.10;5.30;;;;;;;;;;5042913;28;20455;-84
2021/04/02 13:35:06;;;;;;;7.33;5.23;;;;;;;;;;5047150;28;20417;-84
2021/04/02 13:37:32;;;;;;;5.03;4.50;;;;;;;;;;5041389;28;20918;-84
2021/04/02 13:39:58;;;;;;;4.40;4.10;;;;;;;;;;5043958;28;20439;-83
2021/04/02 13:42:24;;;;;;;8.27;4.63;;;;;;;;;;5059174;28;20432;-87
2021/04/02 13:44:50;;;;;;;4.47;4.07;;;;;;;;;;5043393;28;20460;-81
2021/04/02 13:47:16;;;;;;;8.37;4.80;;;;;;;;;;5044953;28;20452;-84
2021/04/02 13:49:45;;;;;;;5.90;3.63;;;;;;;;;;5039939;28;20463;-86
2021/04/02 13:52:12;;;;;;;7.50;4.07;;;;;;;;;;5044300;28;20466;-85
2021/04/02 13:54:38;;;;;;;4.67;3.80;;;;;;;;;;5043950;28;20502;-90
2021/04/02 13:57:04;;;;;;;5.90;4.07;;;;;;;;;;5059289;28;20520;-86
2021/04/02 13:59:30;;;;;;;6.67;4.90;;;;;;;;;;5043309;28;20420;-87
2021/04/02 14:01:56;;;;;;;4.43;4.03;;;;;;;;;;5044245;28;20418;-84
2021/04/02 14:04:22;;;;;;;5.40;4.93;;;;;;;;;;5039863;28;20408;-85
2021/04/02 14:06:48;;;;;;;4.27;3.97;;;;;;;;;;5057352;28;20446;-84
2021/04/02 14:09:14;;;;;;;5.90;5.10;;;;;;;;;;5058639;28;20424;-87
2021/04/02 14:11:40;;;;;;;4.80;4.40;;;;;;;;;;5043633;28;20417;-85
2021/04/02 14:14:06;;;;;;;6.17;5.10;;;;;;;;;;5040832;28;20418;-89
2021/04/02 14:16:32;;;;;;;7.40;5.30;;;;;;;;;;5041628;28;20783;-83
2021/04/02 14:18:59;;;;;;;6.68;5.60;;;;;;;;;;5043423;28;21170;-82
2021/04/02 14:21:25;;;;;;;7.18;4.75;;;;;;;;;;5039283;28;20317;-83
2021/04/02 14:23:53;;;;;;;5.07;4.50;;;;;;;;;;5041322;28;20193;-82
2021/04/02 14:26:28;;;;;;;7.20;5.00;;;;;;;;;;5033495;28;20461;-85
2021/04/02 14:29:13;;;;;;;8.02;6.13;;;;;;;;;;5033352;28;20263;-86
2021/04/02 14:34:31;;;;;;;6.35;5.70;;;;;;;;;;5013501;28;20354;-80
2021/04/02 14:37:14;;;;;;;7.63;6.07;;;;;;;;;;5011426;28;20186;-85
2021/04/02 14:39:58;;;;;;;7.15;5.72;;;;;;;;;;5012476;28;20194;-86